Walton Smith — WCZ6292 — position and weather

sailwx.info

Track history (hours):
 
Tides and Currents Weather Stations Pressure Air Temp Water Temp Dewpoint Dewpoint Depression Visibility Wind Speed Wind Dir Waves Ship Positions

Oceanographic research ship Walton Smith (USA)

Detailed information on ship capabilities available from University of Delaware's Ocean Information Center.

Owner: UNIVERSITY OF MIAMI, MIAMI, FL. More information available from US FCC via Universal Licensing System and Coast Guard Vessel Documentation Center.

Last reported at 2017-Nov-20 00:31 UTC. Time now 2017-Nov-21 10:20 UTC.
Position N 18°19' W 064°43'.

Length 29 m; draft 2 m.

MMSI: 367020910.

Date/timePositionNaut miles runAvg speedWind from/ knotsBaromVisibWave heightAir tempDewpointWater temp
2017-Nov-20 00:31N 18°19' W 064°43'0 0.0
2017-Nov-20 00:01N 18°19' W 064°43'0 0.0
2017-Nov-19 23:31N 18°19' W 064°43'0 0.0
2017-Nov-19 23:01N 18°19' W 064°43'0 0.0
2017-Nov-19 22:31N 18°19' W 064°43'0 0.0
2017-Nov-19 22:01N 18°19' W 064°43'0 0.0
2017-Nov-19 21:31N 18°19' W 064°43'0 0.0
2017-Nov-19 21:01N 18°19' W 064°43'0 0.0
2017-Nov-19 20:31N 18°19' W 064°43'0 0.1
2017-Nov-19 20:01N 18°19' W 064°43'0 0.1
2017-Nov-19 19:30N 18°19' W 064°43'0 0.0
2017-Nov-19 19:01N 18°19' W 064°43'0 0.0
2017-Nov-19 18:31N 18°19' W 064°43'0 0.0
2017-Nov-19 18:01N 18°19' W 064°43'0 0.0
2017-Nov-19 17:31N 18°19' W 064°43'0 0.1
2017-Nov-19 17:01N 18°19' W 064°43'0 0.1
2017-Nov-19 16:30N 18°19' W 064°43'0 0.1
2017-Nov-19 16:01N 18°19' W 064°43'0 0.0
2017-Nov-19 15:30N 18°19' W 064°43'0 0.0
2017-Nov-19 15:01N 18°19' W 064°43'0 0.0
2017-Nov-19 14:31N 18°19' W 064°43'0 0.1
2017-Nov-19 14:01N 18°19' W 064°43'0 0.0
2017-Nov-19 13:31N 18°19' W 064°43'0 0.0
2017-Nov-19 13:01N 18°19' W 064°43'0 0.0
2017-Nov-19 12:31N 18°19' W 064°43'1 1.0
2017-Nov-19 12:01N 18°18' W 064°44'4 8.5
2017-Nov-19 11:31N 18°17' W 064°48'4 8.5
2017-Nov-19 11:01N 18°18' W 064°53'4 7.1
2017-Nov-19 10:30N 18°20' W 064°56'1 1.2
2017-Nov-19 10:01N 18°20' W 064°55'0 0.0
2017-Nov-19 09:30N 18°20' W 064°55'0 0.0
2017-Nov-19 09:00N 18°20' W 064°55'0 0.0
2017-Nov-19 08:30N 18°20' W 064°55'0 0.0
2017-Nov-19 08:00N 18°20' W 064°55'0 0.0
2017-Nov-19 07:31N 18°20' W 064°55'0 0.0
2017-Nov-19 07:01N 18°20' W 064°55'0 0.0
2017-Nov-19 06:31N 18°20' W 064°55'0 0.0
2017-Nov-19 06:01N 18°20' W 064°55'0 0.0
2017-Nov-19 05:30N 18°20' W 064°55'0 0.0
2017-Nov-19 05:01N 18°20' W 064°55'0 0.0
2017-Nov-19 04:31N 18°20' W 064°55'0 0.0
2017-Nov-19 04:00N 18°20' W 064°55'0 0.0
2017-Nov-19 03:31N 18°20' W 064°55'0 0.0
2017-Nov-19 03:01N 18°20' W 064°55'0 0.0
2017-Nov-19 02:31N 18°20' W 064°55'3 5.0
2017-Nov-19 02:01N 18°18' W 064°57'4 8.4
2017-Nov-19 01:31N 18°17' W 065°01'4 8.4
2017-Nov-19 01:01N 18°18' W 065°05'4 8.0
2017-Nov-19 00:31N 18°20' W 065°09'4 8.5
2017-Nov-19 00:01N 18°22' W 065°13'4 8.7
2017-Nov-18 23:31N 18°23' W 065°17'4 8.7
2017-Nov-18 23:01N 18°24' W 065°22'4 8.7
2017-Nov-18 22:31N 18°25' W 065°26'4 8.8
2017-Nov-18 22:01N 18°26' W 065°31'4 8.9
2017-Nov-18 21:31N 18°27' W 065°35'5 9.3
2017-Nov-18 21:01N 18°29' W 065°40'5 9.5
2017-Nov-18 20:31N 18°30' W 065°45'510.0
2017-Nov-18 20:01N 18°32' W 065°50'510.2
2017-Nov-18 19:31N 18°33' W 065°55'510.0
2017-Nov-18 19:01N 18°35' W 065°60'5 9.3
2017-Nov-18 18:31N 18°37' W 066°04'5 9.3
2017-Nov-18 18:01N 18°38' W 066°09'5 9.0
2017-Nov-18 17:31N 18°40' W 066°14'5 9.1
2017-Nov-18 17:01N 18°41' W 066°18'5 9.3
2017-Nov-18 16:31N 18°42' W 066°23'4 8.9
2017-Nov-18 16:01N 18°44' W 066°27'4 8.8
2017-Nov-18 15:31N 18°45' W 066°32'4 8.7
2017-Nov-18 15:01N 18°46' W 066°36'4 8.7
2017-Nov-18 14:31N 18°48' W 066°41'4 8.8
2017-Nov-18 14:01N 18°49' W 066°45'4 8.8
2017-Nov-18 13:31N 18°51' W 066°49'45 9.0
2017-Nov-18 08:30N 19°04' W 067°35'4 9.1
2017-Nov-18 08:01N 19°05' W 067°39'4 8.9
2017-Nov-18 07:31N 19°07' W 067°44'5 9.0
2017-Nov-18 07:01N 19°08' W 067°48'4 8.8
2017-Nov-18 06:31N 19°09' W 067°53'4 8.5
2017-Nov-18 06:01N 19°11' W 067°57'4 8.5
2017-Nov-18 05:31N 19°12' W 068°01'4 8.6
2017-Nov-18 05:01N 19°13' W 068°06'4 8.7
2017-Nov-18 04:31N 19°15' W 068°10'4 8.8
2017-Nov-18 04:01N 19°16' W 068°15'4 8.7
2017-Nov-18 03:31N 19°17' W 068°19'4 8.6
2017-Nov-18 03:01N 19°19' W 068°23'4 8.6
2017-Nov-18 02:31N 19°20' W 068°28'4 8.3
2017-Nov-18 02:01N 19°21' W 068°32'4 8.1
2017-Nov-18 01:31N 19°22' W 068°36'4 8.0
2017-Nov-18 01:01N 19°23' W 068°40'4 8.0
2017-Nov-18 00:31N 19°24' W 068°44'4 7.9
2017-Nov-18 00:01N 19°25' W 068°48'4 8.0
2017-Nov-17 23:31N 19°26' W 068°52'4 8.2
2017-Nov-17 23:01N 19°27' W 068°57'4 8.3
2017-Nov-17 22:31N 19°28' W 069°01'4 8.3
2017-Nov-17 22:01N 19°29' W 069°05'4 8.3
2017-Nov-17 21:31N 19°31' W 069°09'3 6.6
2017-Nov-17 21:01N 19°31' W 069°13'4 8.0
2017-Nov-17 20:31N 19°33' W 069°17'4 7.7
2017-Nov-17 20:01N 19°34' W 069°21'4 7.8
2017-Nov-17 19:31N 19°35' W 069°25'4 7.8
2017-Nov-17 19:01N 19°36' W 069°29'4 8.5
2017-Nov-17 18:31N 19°37' W 069°33'4 8.4
2017-Nov-17 18:01N 19°39' W 069°37'4 8.2
2017-Nov-17 17:31N 19°40' W 069°41'4 8.4
2017-Nov-17 17:01N 19°42' W 069°45'4 8.3
2017-Nov-17 16:31N 19°43' W 069°50'4 8.5
2017-Nov-17 16:01N 19°45' W 069°54'4 8.4
2017-Nov-17 15:31N 19°46' W 069°58'4 8.3
2017-Nov-17 15:00N 19°48' W 070°02'4 8.3
2017-Nov-17 14:31N 19°49' W 070°06'4 8.6
2017-Nov-17 14:00N 19°50' W 070°11'4 8.9
2017-Nov-17 13:31N 19°52' W 070°15'5 9.1
2017-Nov-17 13:01N 19°53' W 070°20'5 9.1
2017-Nov-17 12:31N 19°54' W 070°24'5 9.0
2017-Nov-17 12:01N 19°55' W 070°29'4 8.9
2017-Nov-17 11:31N 19°56' W 070°34'4 8.6
2017-Nov-17 11:01N 19°57' W 070°38'4 8.8
2017-Nov-17 10:31N 19°58' W 070°43'5 9.0
2017-Nov-17 10:01N 19°60' W 070°47'5 9.0
2017-Nov-17 09:31N 20°01' W 070°52'4 8.7
2017-Nov-17 09:01N 20°02' W 070°56'4 8.2
2017-Nov-17 08:30N 20°04' W 071°00'4 8.0
2017-Nov-17 08:00N 20°05' W 071°04'4 7.9
2017-Nov-17 07:31N 20°07' W 071°08'4 7.7
2017-Nov-17 07:00N 20°08' W 071°12'4 7.5
2017-Nov-17 06:30N 20°10' W 071°16'4 8.0
2017-Nov-17 06:01N 20°11' W 071°20'4 8.3
2017-Nov-17 05:31N 20°12' W 071°24'4 8.3
2017-Nov-17 05:01N 20°12' W 071°28'4 8.2
2017-Nov-17 04:31N 20°13' W 071°33'4 8.1
2017-Nov-17 04:01N 20°14' W 071°37'4 7.5
2017-Nov-17 03:31N 20°15' W 071°41'4 8.1
2017-Nov-17 03:01N 20°15' W 071°45'4 8.1
2017-Nov-17 02:31N 20°16' W 071°49'4 8.0
2017-Nov-17 02:01N 20°16' W 071°54'4 8.0
2017-Nov-17 01:31N 20°17' W 071°58'4 7.8
2017-Nov-17 01:01N 20°18' W 072°02'4 7.7
2017-Nov-17 00:31N 20°18' W 072°06'4 7.9
2017-Nov-17 00:01N 20°19' W 072°10'4 8.1
2017-Nov-16 23:31N 20°20' W 072°14'4 8.6
2017-Nov-16 23:01N 20°21' W 072°19'4 8.8
2017-Nov-16 22:31N 20°22' W 072°23'4 8.6
2017-Nov-16 22:01N 20°23' W 072°28'4 8.2
2017-Nov-16 21:31N 20°24' W 072°32'4 8.0
2017-Nov-16 21:01N 20°25' W 072°36'4 7.9
2017-Nov-16 20:31N 20°26' W 072°40'4 8.2
2017-Nov-16 20:01N 20°27' W 072°44'4 7.9
2017-Nov-16 19:31N 20°28' W 072°49'4 7.8
2017-Nov-16 19:01N 20°29' W 072°53'4 8.1
2017-Nov-16 18:31N 20°30' W 072°57'4 8.0
2017-Nov-16 18:01N 20°31' W 073°01'4 7.9
2017-Nov-16 17:31N 20°32' W 073°05'4 8.0
2017-Nov-16 17:01N 20°33' W 073°09'4 8.0
2017-Nov-16 16:31N 20°35' W 073°13'4 8.0
2017-Nov-16 16:01N 20°36' W 073°17'4 8.0
2017-Nov-16 15:31N 20°37' W 073°21'4 7.7
2017-Nov-16 15:01N 20°38' W 073°25'4 8.0
2017-Nov-16 14:31N 20°39' W 073°29'4 8.7
2017-Nov-16 14:01N 20°41' W 073°33'4 8.6
2017-Nov-16 13:31N 20°43' W 073°38'4 8.6
2017-Nov-16 13:00N 20°44' W 073°42'5 9.2
2017-Nov-16 12:31N 20°45' W 073°47'4 8.9
2017-Nov-16 12:01N 20°47' W 073°51'4 8.5
2017-Nov-16 11:31N 20°48' W 073°56'4 8.3
2017-Nov-16 11:01N 20°49' W 073°60'4 8.3
2017-Nov-16 10:31N 20°50' W 074°04'4 8.1
2017-Nov-16 10:01N 20°51' W 074°08'4 8.0
2017-Nov-16 09:31N 20°52' W 074°13'4 8.2
2017-Nov-16 09:01N 20°53' W 074°17'4 8.5
2017-Nov-16 08:31N 20°53' W 074°21'4 8.5
2017-Nov-16 08:01N 20°54' W 074°26'4 8.1
2017-Nov-16 07:31N 20°55' W 074°30'4 8.0
2017-Nov-16 07:01N 20°55' W 074°34'4 8.1
2017-Nov-16 06:31N 20°56' W 074°39'4 8.0
2017-Nov-16 06:01N 20°57' W 074°43'4 8.2
2017-Nov-16 05:31N 20°58' W 074°47'4 8.2
2017-Nov-16 05:01N 20°59' W 074°51'4 8.1
2017-Nov-16 04:31N 20°60' W 074°56'4 8.3
2017-Nov-16 04:01N 21°00' W 075°00'4 8.4
2017-Nov-16 03:31N 21°01' W 075°04'42 8.3
2017-Nov-15 22:23N 21°16' W 075°47'3 8.1
2017-Nov-15 22:01N 21°17' W 075°50'3 6.0
2017-Nov-15 21:31N 21°18' W 075°53'4 7.7
2017-Nov-15 21:00N 21°20' W 075°57'4 8.0
2017-Nov-15 20:31N 21°21' W 076°01'4 8.1
2017-Nov-15 20:01N 21°23' W 076°05'4 8.0
2017-Nov-15 19:31N 21°25' W 076°08'4 7.9
2017-Nov-15 19:01N 21°26' W 076°12'181 7.6
2017-Nov-14 19:16N 23°29' W 078°35'2 8.0
2017-Nov-14 19:01N 23°31' W 078°37'4 8.0
2017-Nov-14 18:31N 23°34' W 078°40'4 7.9
2017-Nov-14 18:01N 23°37' W 078°42'4 7.9
2017-Nov-14 17:31N 23°40' W 078°45'4 7.8
2017-Nov-14 17:01N 23°43' W 078°48'4 7.8
2017-Nov-14 16:31N 23°46' W 078°50'4 7.7
2017-Nov-14 16:01N 23°49' W 078°53'4 7.7
2017-Nov-14 15:31N 23°52' W 078°56'4 7.7
2017-Nov-14 15:01N 23°55' W 078°58'4 7.8
2017-Nov-14 14:31N 23°58' W 079°01'4 7.8
2017-Nov-14 14:01N 24°01' W 079°03'4 8.0
2017-Nov-14 13:31N 24°05' W 079°06'4 8.3
2017-Nov-14 13:01N 24°08' W 079°09'4 7.8
2017-Nov-14 12:31N 24°11' W 079°11'4 7.5
2017-Nov-14 12:01N 24°14' W 079°13'4 7.5
2017-Nov-14 11:31N 24°17' W 079°16'4 7.5
2017-Nov-14 11:01N 24°20' W 079°18'4 7.8
2017-Nov-14 10:31N 24°24' W 079°20'4 8.1
2017-Nov-14 10:01N 24°28' W 079°22'4 8.5
2017-Nov-14 09:31N 24°32' W 079°23'4 8.5
2017-Nov-14 09:01N 24°36' W 079°25'4 8.3
2017-Nov-14 08:31N 24°40' W 079°26'4 8.1
2017-Nov-14 08:01N 24°43' W 079°28'4 8.0
2017-Nov-14 07:31N 24°47' W 079°30'4 7.8
2017-Nov-14 07:01N 24°50' W 079°32'4 7.5
2017-Nov-14 06:31N 24°54' W 079°34'4 7.4
2017-Nov-14 06:00N 24°57' W 079°36'4 7.3
2017-Nov-14 05:31N 25°00' W 079°38'4 7.1
2017-Nov-14 05:01N 25°03' W 079°39'3 6.7
2017-Nov-14 04:31N 25°06' W 079°41'3 6.6
2017-Nov-14 04:00N 25°09' W 079°43'3 6.7
2017-Nov-14 03:31N 25°12' W 079°44'3 6.5
2017-Nov-14 03:01N 25°15' W 079°46'3 6.2
2017-Nov-14 02:30N 25°18' W 079°48'3 6.2
2017-Nov-14 02:01N 25°21' W 079°49'3 6.0
2017-Nov-14 01:31N 25°23' W 079°51'3 6.1
2017-Nov-14 01:00N 25°26' W 079°52'3 6.1
2017-Nov-14 00:31N 25°29' W 079°54'3 6.1
2017-Nov-14 00:01N 25°31' W 079°55'3 6.0
2017-Nov-13 23:31N 25°34' W 079°57'3 6.1
2017-Nov-13 23:01N 25°36' W 079°59'3 6.9
2017-Nov-13 22:31N 25°39' W 080°02'4 7.8
2017-Nov-13 22:01N 25°42' W 080°04'6 0.3
2017-Nov-13 02:00N 25°44' W 080°10'0 0.0
2017-Nov-13 01:30N 25°44' W 080°10'0 0.0
2017-Nov-13 01:00N 25°44' W 080°10'0 0.0
2017-Nov-13 00:30N 25°44' W 080°10'0 0.0
2017-Nov-13 00:00N 25°44' W 080°10'0 0.0
2017-Nov-12 23:30N 25°44' W 080°10'0 0.0
2017-Nov-12 23:00N 25°44' W 080°10'0 0.0
2017-Nov-12 22:31N 25°44' W 080°10'0 0.0
2017-Nov-12 22:01N 25°44' W 080°10'0 0.0
2017-Nov-12 21:30N 25°44' W 080°10'0 0.0
2017-Nov-12 21:00N 25°44' W 080°10'0 0.0
2017-Nov-12 20:30N 25°44' W 080°10'0 0.0
2017-Nov-12 20:00N 25°44' W 080°10'0 0.0
2017-Nov-12 19:30N 25°44' W 080°10'0 0.0
2017-Nov-12 19:00N 25°44' W 080°10'0 0.0
2017-Nov-12 18:30N 25°44' W 080°10'0 0.0
2017-Nov-12 18:00N 25°44' W 080°10'0 0.0
2017-Nov-12 17:30N 25°44' W 080°10'0 0.0
2017-Nov-12 17:00N 25°44' W 080°10'0 0.0
2017-Nov-12 16:30N 25°44' W 080°10'0 0.0
2017-Nov-12 16:00N 25°44' W 080°10'0 0.0
2017-Nov-12 15:30N 25°44' W 080°10'0 0.0
2017-Nov-12 15:00N 25°44' W 080°10'0 0.0
2017-Nov-12 14:30N 25°44' W 080°10'0 0.0
2017-Nov-12 14:00N 25°44' W 080°10'0 0.0
2017-Nov-12 13:30N 25°44' W 080°10'0 0.0
2017-Nov-12 13:00N 25°44' W 080°10'0 0.0
2017-Nov-12 12:30N 25°44' W 080°10'0 0.0
2017-Nov-12 12:00N 25°44' W 080°10'0 0.0
2017-Nov-12 11:30N 25°44' W 080°10'0 0.0
2017-Nov-12 11:00N 25°44' W 080°10'0 0.0
2017-Nov-12 10:30N 25°44' W 080°10'0 0.0
2017-Nov-12 10:00N 25°44' W 080°10'0 0.0
2017-Nov-12 09:30N 25°44' W 080°10'0 0.0
2017-Nov-12 09:00N 25°44' W 080°10'0 0.0
2017-Nov-12 08:30N 25°44' W 080°10'0 0.0
2017-Nov-12 08:00N 25°44' W 080°10'0 0.0
2017-Nov-12 07:30N 25°44' W 080°10'0 0.0
2017-Nov-12 07:00N 25°44' W 080°10'0 0.0
2017-Nov-12 06:30N 25°44' W 080°10'0 0.0
2017-Nov-12 06:00N 25°44' W 080°10'0 0.0
2017-Nov-12 05:30N 25°44' W 080°10'0 0.0
2017-Nov-12 05:00N 25°44' W 080°10'0 0.0
2017-Nov-12 04:31N 25°44' W 080°10'0 0.0
2017-Nov-12 04:01N 25°44' W 080°10'0 0.0
2017-Nov-12 03:31N 25°44' W 080°10'0 0.0
2017-Nov-12 03:01N 25°44' W 080°10'0 0.0
2017-Nov-12 02:30N 25°44' W 080°10'0 0.0
2017-Nov-12 02:00N 25°44' W 080°10'0 0.0
2017-Nov-12 01:30N 25°44' W 080°10'0 0.0
2017-Nov-12 01:00N 25°44' W 080°10'0 0.0
2017-Nov-12 00:30N 25°44' W 080°10'0 0.0
2017-Nov-12 00:00N 25°44' W 080°10'0 0.0
2017-Nov-11 23:30N 25°44' W 080°10'0 0.0
2017-Nov-11 23:00N 25°44' W 080°10'0 0.0
2017-Nov-11 22:30N 25°44' W 080°10'0 0.0
2017-Nov-11 22:00N 25°44' W 080°10'0 0.0
2017-Nov-11 21:30N 25°44' W 080°10'0 0.0
2017-Nov-11 21:00N 25°44' W 080°10'0 0.0
2017-Nov-11 20:30N 25°44' W 080°10'0 0.0
2017-Nov-11 19:59N 25°44' W 080°10'0 0.0
2017-Nov-11 19:30N 25°44' W 080°10'0 0.0
2017-Nov-11 19:00N 25°44' W 080°10'0 0.0
2017-Nov-11 18:30N 25°44' W 080°10'0 0.0
2017-Nov-11 18:00N 25°44' W 080°10'0 0.0
2017-Nov-11 17:30N 25°44' W 080°10'0 0.0
2017-Nov-11 17:00N 25°44' W 080°10'0 0.0
2017-Nov-11 16:30N 25°44' W 080°10'0 0.0
2017-Nov-11 16:00N 25°44' W 080°10'0 0.0
2017-Nov-11 15:30N 25°44' W 080°10'0 0.0
2017-Nov-11 15:00N 25°44' W 080°10'0 0.0
2017-Nov-11 14:30N 25°44' W 080°10'0 0.0
2017-Nov-11 14:00N 25°44' W 080°10'0 0.0
2017-Nov-11 13:30N 25°44' W 080°10'0 0.0
2017-Nov-11 13:00N 25°44' W 080°10'0 0.0
2017-Nov-11 12:30N 25°44' W 080°10'0 0.0
2017-Nov-11 12:00N 25°44' W 080°10'0 0.0
2017-Nov-11 11:30N 25°44' W 080°10'0 0.0
2017-Nov-11 11:00N 25°44' W 080°10'0 0.0
2017-Nov-11 10:30N 25°44' W 080°10'0 0.0
2017-Nov-11 10:00N 25°44' W 080°10'0 0.0
2017-Nov-11 09:30N 25°44' W 080°10'0 0.0
2017-Nov-11 09:00N 25°44' W 080°10'0 0.0
2017-Nov-11 08:30N 25°44' W 080°10'0 0.0
2017-Nov-11 08:00N 25°44' W 080°10'0 0.0
2017-Nov-11 07:30N 25°44' W 080°10'0 0.0
2017-Nov-11 07:00N 25°44' W 080°10'0 0.0
2017-Nov-11 06:30N 25°44' W 080°10'0 0.0
2017-Nov-11 06:00N 25°44' W 080°10'0 0.0
2017-Nov-11 05:30N 25°44' W 080°10'0 0.0
2017-Nov-11 05:00N 25°44' W 080°10'0 0.0
2017-Nov-11 04:30N 25°44' W 080°10'0 0.0
2017-Nov-11 04:00N 25°44' W 080°10'0 0.0
2017-Nov-11 03:30N 25°44' W 080°10'0 0.0
2017-Nov-11 03:00N 25°44' W 080°10'0 0.0
2017-Nov-11 02:31N 25°44' W 080°10'0 0.0
2017-Nov-11 02:00N 25°44' W 080°10'0 0.0
2017-Nov-11 01:30N 25°44' W 080°10'0 0.0
2017-Nov-11 01:00N 25°44' W 080°10'0 0.0
2017-Nov-11 00:31N 25°44' W 080°10'0 0.0
2017-Nov-11 00:00N 25°44' W 080°10'0 0.0
2017-Nov-10 23:31N 25°44' W 080°10'0 0.0
2017-Nov-10 23:01N 25°44' W 080°10'0 0.0
2017-Nov-10 22:31N 25°44' W 080°10'0 0.0
2017-Nov-10 22:00N 25°44' W 080°10'0 0.0
2017-Nov-10 21:30N 25°44' W 080°10'0 0.0
2017-Nov-10 21:01N 25°44' W 080°10'0 0.0
2017-Nov-10 20:30N 25°44' W 080°10'0 0.0
2017-Nov-10 20:01N 25°44' W 080°10'0 0.0
2017-Nov-10 19:30N 25°44' W 080°10'0 0.0
2017-Nov-10 19:00N 25°44' W 080°10'0 0.0
2017-Nov-10 18:30N 25°44' W 080°10'0 0.0
2017-Nov-10 18:00N 25°44' W 080°10'0 0.0
2017-Nov-10 17:31N 25°44' W 080°10'1 2.3
2017-Nov-10 17:01N 25°44' W 080°11'3 5.5
2017-Nov-10 16:30N 25°46' W 080°09'4 8.9
2017-Nov-10 16:01N 25°46' W 080°04'4 8.7
2017-Nov-10 15:31N 25°46' W 079°59'4 8.1
2017-Nov-10 15:01N 25°47' W 079°55'4 7.7
2017-Nov-10 14:31N 25°47' W 079°51'4 7.1
2017-Nov-10 14:01N 25°47' W 079°47'4 7.5
2017-Nov-10 13:31N 25°48' W 079°43'4 7.8
2017-Nov-10 13:01N 25°48' W 079°38'4 7.8
2017-Nov-10 12:31N 25°48' W 079°34'4 8.0
2017-Nov-10 12:01N 25°48' W 079°30'4 8.0
2017-Nov-10 11:31N 25°48' W 079°25'4 8.1
2017-Nov-10 11:01N 25°48' W 079°21'4 8.0
2017-Nov-10 10:31N 25°48' W 079°16'4 8.4
2017-Nov-10 10:01N 25°49' W 079°12'4 8.6
2017-Nov-10 09:31N 25°49' W 079°07'4 8.4
2017-Nov-10 09:01N 25°48' W 079°02'4 8.4
2017-Nov-10 08:31N 25°48' W 078°58'4 8.3
2017-Nov-10 08:01N 25°48' W 078°53'4 8.4
2017-Nov-10 07:31N 25°48' W 078°48'4 8.5
2017-Nov-10 07:01N 25°48' W 078°44'4 8.6
2017-Nov-10 06:31N 25°48' W 078°39'4 8.7
2017-Nov-10 06:01N 25°48' W 078°34'4 8.9
2017-Nov-10 05:31N 25°48' W 078°29'4 9.0
2017-Nov-10 05:01N 25°48' W 078°24'4 8.9
2017-Nov-10 04:31N 25°49' W 078°19'4 8.7
2017-Nov-10 04:01N 25°49' W 078°14'4 8.5
2017-Nov-10 03:31N 25°50' W 078°10'4 8.2
2017-Nov-10 03:01N 25°51' W 078°05'4 7.9
2017-Nov-10 02:31N 25°51' W 078°01'4 8.1
2017-Nov-10 02:01N 25°51' W 077°56'4 8.2
2017-Nov-10 01:31N 25°51' W 077°52'4 8.7
2017-Nov-10 01:01N 25°50' W 077°47'  
Track history (hours):
 
Tides and Currents Weather Stations Pressure Air Temp Water Temp Dewpoint Dewpoint Depression Visibility Wind Speed Wind Dir Waves Ship Positions

Oceanographic research ship Walton Smith (USA)

Detailed information on ship capabilities available from University of Delaware's Ocean Information Center.

Owner: UNIVERSITY OF MIAMI, MIAMI, FL. More information available from US FCC via Universal Licensing System and Coast Guard Vessel Documentation Center.

Last reported at 2017-Nov-20 00:31 UTC. Time now 2017-Nov-21 10:20 UTC.
Position N 18°19' W 064°43'.

Length 29 m; draft 2 m.

MMSI: 367020910.

Date/timePositionNaut miles runAvg speedWind from/ knotsBaromVisibWave heightAir tempDewpointWater temp
2017-Nov-20 00:31N 18°19' W 064°43'0 0.0
2017-Nov-20 00:01N 18°19' W 064°43'0 0.0
2017-Nov-19 23:31N 18°19' W 064°43'0 0.0
2017-Nov-19 23:01N 18°19' W 064°43'0 0.0
2017-Nov-19 22:31N 18°19' W 064°43'0 0.0
2017-Nov-19 22:01N 18°19' W 064°43'0 0.0
2017-Nov-19 21:31N 18°19' W 064°43'0 0.0
2017-Nov-19 21:01N 18°19' W 064°43'0 0.0
2017-Nov-19 20:31N 18°19' W 064°43'0 0.1
2017-Nov-19 20:01N 18°19' W 064°43'0 0.1
2017-Nov-19 19:30N 18°19' W 064°43'0 0.0
2017-Nov-19 19:01N 18°19' W 064°43'0 0.0
2017-Nov-19 18:31N 18°19' W 064°43'0 0.0
2017-Nov-19 18:01N 18°19' W 064°43'0 0.0
2017-Nov-19 17:31N 18°19' W 064°43'0 0.1
2017-Nov-19 17:01N 18°19' W 064°43'0 0.1
2017-Nov-19 16:30N 18°19' W 064°43'0 0.1
2017-Nov-19 16:01N 18°19' W 064°43'0 0.0
2017-Nov-19 15:30N 18°19' W 064°43'0 0.0
2017-Nov-19 15:01N 18°19' W 064°43'0 0.0
2017-Nov-19 14:31N 18°19' W 064°43'0 0.1
2017-Nov-19 14:01N 18°19' W 064°43'0 0.0
2017-Nov-19 13:31N 18°19' W 064°43'0 0.0
2017-Nov-19 13:01N 18°19' W 064°43'0 0.0
2017-Nov-19 12:31N 18°19' W 064°43'1 1.0
2017-Nov-19 12:01N 18°18' W 064°44'4 8.5
2017-Nov-19 11:31N 18°17' W 064°48'4 8.5
2017-Nov-19 11:01N 18°18' W 064°53'4 7.1
2017-Nov-19 10:30N 18°20' W 064°56'1 1.2
2017-Nov-19 10:01N 18°20' W 064°55'0 0.0
2017-Nov-19 09:30N 18°20' W 064°55'0 0.0
2017-Nov-19 09:00N 18°20' W 064°55'0 0.0
2017-Nov-19 08:30N 18°20' W 064°55'0 0.0
2017-Nov-19 08:00N 18°20' W 064°55'0 0.0
2017-Nov-19 07:31N 18°20' W 064°55'0 0.0
2017-Nov-19 07:01N 18°20' W 064°55'0 0.0
2017-Nov-19 06:31N 18°20' W 064°55'0 0.0
2017-Nov-19 06:01N 18°20' W 064°55'0 0.0
2017-Nov-19 05:30N 18°20' W 064°55'0 0.0
2017-Nov-19 05:01N 18°20' W 064°55'0 0.0
2017-Nov-19 04:31N 18°20' W 064°55'0 0.0
2017-Nov-19 04:00N 18°20' W 064°55'0 0.0
2017-Nov-19 03:31N 18°20' W 064°55'0 0.0
2017-Nov-19 03:01N 18°20' W 064°55'0 0.0
2017-Nov-19 02:31N 18°20' W 064°55'3 5.0
2017-Nov-19 02:01N 18°18' W 064°57'4 8.4
2017-Nov-19 01:31N 18°17' W 065°01'4 8.4
2017-Nov-19 01:01N 18°18' W 065°05'4 8.0
2017-Nov-19 00:31N 18°20' W 065°09'4 8.5
2017-Nov-19 00:01N 18°22' W 065°13'4 8.7
2017-Nov-18 23:31N 18°23' W 065°17'4 8.7
2017-Nov-18 23:01N 18°24' W 065°22'4 8.7
2017-Nov-18 22:31N 18°25' W 065°26'4 8.8
2017-Nov-18 22:01N 18°26' W 065°31'4 8.9
2017-Nov-18 21:31N 18°27' W 065°35'5 9.3
2017-Nov-18 21:01N 18°29' W 065°40'5 9.5
2017-Nov-18 20:31N 18°30' W 065°45'510.0
2017-Nov-18 20:01N 18°32' W 065°50'510.2
2017-Nov-18 19:31N 18°33' W 065°55'510.0
2017-Nov-18 19:01N 18°35' W 065°60'5 9.3
2017-Nov-18 18:31N 18°37' W 066°04'5 9.3
2017-Nov-18 18:01N 18°38' W 066°09'5 9.0
2017-Nov-18 17:31N 18°40' W 066°14'5 9.1
2017-Nov-18 17:01N 18°41' W 066°18'5 9.3
2017-Nov-18 16:31N 18°42' W 066°23'4 8.9
2017-Nov-18 16:01N 18°44' W 066°27'4 8.8
2017-Nov-18 15:31N 18°45' W 066°32'4 8.7
2017-Nov-18 15:01N 18°46' W 066°36'4 8.7
2017-Nov-18 14:31N 18°48' W 066°41'4 8.8
2017-Nov-18 14:01N 18°49' W 066°45'4 8.8
2017-Nov-18 13:31N 18°51' W 066°49'45 9.0
2017-Nov-18 08:30N 19°04' W 067°35'4 9.1
2017-Nov-18 08:01N 19°05' W 067°39'4 8.9
2017-Nov-18 07:31N 19°07' W 067°44'5 9.0
2017-Nov-18 07:01N 19°08' W 067°48'4 8.8
2017-Nov-18 06:31N 19°09' W 067°53'4 8.5
2017-Nov-18 06:01N 19°11' W 067°57'4 8.5
2017-Nov-18 05:31N 19°12' W 068°01'4 8.6
2017-Nov-18 05:01N 19°13' W 068°06'4 8.7
2017-Nov-18 04:31N 19°15' W 068°10'4 8.8
2017-Nov-18 04:01N 19°16' W 068°15'4 8.7
2017-Nov-18 03:31N 19°17' W 068°19'4 8.6
2017-Nov-18 03:01N 19°19' W 068°23'4 8.6
2017-Nov-18 02:31N 19°20' W 068°28'4 8.3
2017-Nov-18 02:01N 19°21' W 068°32'4 8.1
2017-Nov-18 01:31N 19°22' W 068°36'4 8.0
2017-Nov-18 01:01N 19°23' W 068°40'4 8.0
2017-Nov-18 00:31N 19°24' W 068°44'4 7.9
2017-Nov-18 00:01N 19°25' W 068°48'4 8.0
2017-Nov-17 23:31N 19°26' W 068°52'4 8.2
2017-Nov-17 23:01N 19°27' W 068°57'4 8.3
2017-Nov-17 22:31N 19°28' W 069°01'4 8.3
2017-Nov-17 22:01N 19°29' W 069°05'4 8.3
2017-Nov-17 21:31N 19°31' W 069°09'3 6.6
2017-Nov-17 21:01N 19°31' W 069°13'4 8.0
2017-Nov-17 20:31N 19°33' W 069°17'4 7.7
2017-Nov-17 20:01N 19°34' W 069°21'4 7.8
2017-Nov-17 19:31N 19°35' W 069°25'4 7.8
2017-Nov-17 19:01N 19°36' W 069°29'4 8.5
2017-Nov-17 18:31N 19°37' W 069°33'4 8.4
2017-Nov-17 18:01N 19°39' W 069°37'4 8.2
2017-Nov-17 17:31N 19°40' W 069°41'4 8.4
2017-Nov-17 17:01N 19°42' W 069°45'4 8.3
2017-Nov-17 16:31N 19°43' W 069°50'4 8.5
2017-Nov-17 16:01N 19°45' W 069°54'4 8.4
2017-Nov-17 15:31N 19°46' W 069°58'4 8.3
2017-Nov-17 15:00N 19°48' W 070°02'4 8.3
2017-Nov-17 14:31N 19°49' W 070°06'4 8.6
2017-Nov-17 14:00N 19°50' W 070°11'4 8.9
2017-Nov-17 13:31N 19°52' W 070°15'5 9.1
2017-Nov-17 13:01N 19°53' W 070°20'5 9.1
2017-Nov-17 12:31N 19°54' W 070°24'5 9.0
2017-Nov-17 12:01N 19°55' W 070°29'4 8.9
2017-Nov-17 11:31N 19°56' W 070°34'4 8.6
2017-Nov-17 11:01N 19°57' W 070°38'4 8.8
2017-Nov-17 10:31N 19°58' W 070°43'5 9.0
2017-Nov-17 10:01N 19°60' W 070°47'5 9.0
2017-Nov-17 09:31N 20°01' W 070°52'4 8.7
2017-Nov-17 09:01N 20°02' W 070°56'4 8.2
2017-Nov-17 08:30N 20°04' W 071°00'4 8.0
2017-Nov-17 08:00N 20°05' W 071°04'4 7.9
2017-Nov-17 07:31N 20°07' W 071°08'4 7.7
2017-Nov-17 07:00N 20°08' W 071°12'4 7.5
2017-Nov-17 06:30N 20°10' W 071°16'4 8.0
2017-Nov-17 06:01N 20°11' W 071°20'4 8.3
2017-Nov-17 05:31N 20°12' W 071°24'4 8.3
2017-Nov-17 05:01N 20°12' W 071°28'4 8.2
2017-Nov-17 04:31N 20°13' W 071°33'4 8.1
2017-Nov-17 04:01N 20°14' W 071°37'4 7.5
2017-Nov-17 03:31N 20°15' W 071°41'4 8.1
2017-Nov-17 03:01N 20°15' W 071°45'4 8.1
2017-Nov-17 02:31N 20°16' W 071°49'4 8.0
2017-Nov-17 02:01N 20°16' W 071°54'4 8.0
2017-Nov-17 01:31N 20°17' W 071°58'4 7.8
2017-Nov-17 01:01N 20°18' W 072°02'4 7.7
2017-Nov-17 00:31N 20°18' W 072°06'4 7.9
2017-Nov-17 00:01N 20°19' W 072°10'4 8.1
2017-Nov-16 23:31N 20°20' W 072°14'4 8.6
2017-Nov-16 23:01N 20°21' W 072°19'4 8.8
2017-Nov-16 22:31N 20°22' W 072°23'4 8.6
2017-Nov-16 22:01N 20°23' W 072°28'4 8.2
2017-Nov-16 21:31N 20°24' W 072°32'4 8.0
2017-Nov-16 21:01N 20°25' W 072°36'4 7.9
2017-Nov-16 20:31N 20°26' W 072°40'4 8.2
2017-Nov-16 20:01N 20°27' W 072°44'4 7.9
2017-Nov-16 19:31N 20°28' W 072°49'4 7.8
2017-Nov-16 19:01N 20°29' W 072°53'4 8.1
2017-Nov-16 18:31N 20°30' W 072°57'4 8.0
2017-Nov-16 18:01N 20°31' W 073°01'4 7.9
2017-Nov-16 17:31N 20°32' W 073°05'4 8.0
2017-Nov-16 17:01N 20°33' W 073°09'4 8.0
2017-Nov-16 16:31N 20°35' W 073°13'4 8.0
2017-Nov-16 16:01N 20°36' W 073°17'4 8.0
2017-Nov-16 15:31N 20°37' W 073°21'4 7.7
2017-Nov-16 15:01N 20°38' W 073°25'4 8.0
2017-Nov-16 14:31N 20°39' W 073°29'4 8.7
2017-Nov-16 14:01N 20°41' W 073°33'4 8.6
2017-Nov-16 13:31N 20°43' W 073°38'4 8.6
2017-Nov-16 13:00N 20°44' W 073°42'5 9.2
2017-Nov-16 12:31N 20°45' W 073°47'4 8.9
2017-Nov-16 12:01N 20°47' W 073°51'4 8.5
2017-Nov-16 11:31N 20°48' W 073°56'4 8.3
2017-Nov-16 11:01N 20°49' W 073°60'4 8.3
2017-Nov-16 10:31N 20°50' W 074°04'4 8.1
2017-Nov-16 10:01N 20°51' W 074°08'4 8.0
2017-Nov-16 09:31N 20°52' W 074°13'4 8.2
2017-Nov-16 09:01N 20°53' W 074°17'4 8.5
2017-Nov-16 08:31N 20°53' W 074°21'4 8.5
2017-Nov-16 08:01N 20°54' W 074°26'4 8.1
2017-Nov-16 07:31N 20°55' W 074°30'4 8.0
2017-Nov-16 07:01N 20°55' W 074°34'4 8.1
2017-Nov-16 06:31N 20°56' W 074°39'4 8.0
2017-Nov-16 06:01N 20°57' W 074°43'4 8.2
2017-Nov-16 05:31N 20°58' W 074°47'4 8.2
2017-Nov-16 05:01N 20°59' W 074°51'4 8.1
2017-Nov-16 04:31N 20°60' W 074°56'4 8.3
2017-Nov-16 04:01N 21°00' W 075°00'4 8.4
2017-Nov-16 03:31N 21°01' W 075°04'42 8.3
2017-Nov-15 22:23N 21°16' W 075°47'3 8.1
2017-Nov-15 22:01N 21°17' W 075°50'3 6.0
2017-Nov-15 21:31N 21°18' W 075°53'4 7.7
2017-Nov-15 21:00N 21°20' W 075°57'4 8.0
2017-Nov-15 20:31N 21°21' W 076°01'4 8.1
2017-Nov-15 20:01N 21°23' W 076°05'4 8.0
2017-Nov-15 19:31N 21°25' W 076°08'4 7.9
2017-Nov-15 19:01N 21°26' W 076°12'181 7.6
2017-Nov-14 19:16N 23°29' W 078°35'2 8.0
2017-Nov-14 19:01N 23°31' W 078°37'4 8.0
2017-Nov-14 18:31N 23°34' W 078°40'4 7.9
2017-Nov-14 18:01N 23°37' W 078°42'4 7.9
2017-Nov-14 17:31N 23°40' W 078°45'4 7.8
2017-Nov-14 17:01N 23°43' W 078°48'4 7.8
2017-Nov-14 16:31N 23°46' W 078°50'4 7.7
2017-Nov-14 16:01N 23°49' W 078°53'4 7.7
2017-Nov-14 15:31N 23°52' W 078°56'4 7.7
2017-Nov-14 15:01N 23°55' W 078°58'4 7.8
2017-Nov-14 14:31N 23°58' W 079°01'4 7.8
2017-Nov-14 14:01N 24°01' W 079°03'4 8.0
2017-Nov-14 13:31N 24°05' W 079°06'4 8.3
2017-Nov-14 13:01N 24°08' W 079°09'4 7.8
2017-Nov-14 12:31N 24°11' W 079°11'4 7.5
2017-Nov-14 12:01N 24°14' W 079°13'4 7.5
2017-Nov-14 11:31N 24°17' W 079°16'4 7.5
2017-Nov-14 11:01N 24°20' W 079°18'4 7.8
2017-Nov-14 10:31N 24°24' W 079°20'4 8.1
2017-Nov-14 10:01N 24°28' W 079°22'4 8.5
2017-Nov-14 09:31N 24°32' W 079°23'4 8.5
2017-Nov-14 09:01N 24°36' W 079°25'4 8.3
2017-Nov-14 08:31N 24°40' W 079°26'4 8.1
2017-Nov-14 08:01N 24°43' W 079°28'4 8.0
2017-Nov-14 07:31N 24°47' W 079°30'4 7.8
2017-Nov-14 07:01N 24°50' W 079°32'4 7.5
2017-Nov-14 06:31N 24°54' W 079°34'4 7.4
2017-Nov-14 06:00N 24°57' W 079°36'4 7.3
2017-Nov-14 05:31N 25°00' W 079°38'4 7.1
2017-Nov-14 05:01N 25°03' W 079°39'3 6.7
2017-Nov-14 04:31N 25°06' W 079°41'3 6.6
2017-Nov-14 04:00N 25°09' W 079°43'3 6.7
2017-Nov-14 03:31N 25°12' W 079°44'3 6.5
2017-Nov-14 03:01N 25°15' W 079°46'3 6.2
2017-Nov-14 02:30N 25°18' W 079°48'3 6.2
2017-Nov-14 02:01N 25°21' W 079°49'3 6.0
2017-Nov-14 01:31N 25°23' W 079°51'3 6.1
2017-Nov-14 01:00N 25°26' W 079°52'3 6.1
2017-Nov-14 00:31N 25°29' W 079°54'3 6.1
2017-Nov-14 00:01N 25°31' W 079°55'3 6.0
2017-Nov-13 23:31N 25°34' W 079°57'3 6.1
2017-Nov-13 23:01N 25°36' W 079°59'3 6.9
2017-Nov-13 22:31N 25°39' W 080°02'4 7.8
2017-Nov-13 22:01N 25°42' W 080°04'6 0.3
2017-Nov-13 02:00N 25°44' W 080°10'0 0.0
2017-Nov-13 01:30N 25°44' W 080°10'0 0.0
2017-Nov-13 01:00N 25°44' W 080°10'0 0.0
2017-Nov-13 00:30N 25°44' W 080°10'0 0.0
2017-Nov-13 00:00N 25°44' W 080°10'0 0.0
2017-Nov-12 23:30N 25°44' W 080°10'0 0.0
2017-Nov-12 23:00N 25°44' W 080°10'0 0.0
2017-Nov-12 22:31N 25°44' W 080°10'0 0.0
2017-Nov-12 22:01N 25°44' W 080°10'0 0.0
2017-Nov-12 21:30N 25°44' W 080°10'0 0.0
2017-Nov-12 21:00N 25°44' W 080°10'0 0.0
2017-Nov-12 20:30N 25°44' W 080°10'0 0.0
2017-Nov-12 20:00N 25°44' W 080°10'0 0.0
2017-Nov-12 19:30N 25°44' W 080°10'0 0.0
2017-Nov-12 19:00N 25°44' W 080°10'0 0.0
2017-Nov-12 18:30N 25°44' W 080°10'0 0.0
2017-Nov-12 18:00N 25°44' W 080°10'0 0.0
2017-Nov-12 17:30N 25°44' W 080°10'0 0.0
2017-Nov-12 17:00N 25°44' W 080°10'0 0.0
2017-Nov-12 16:30N 25°44' W 080°10'0 0.0
2017-Nov-12 16:00N 25°44' W 080°10'0 0.0
2017-Nov-12 15:30N 25°44' W 080°10'0 0.0
2017-Nov-12 15:00N 25°44' W 080°10'0 0.0
2017-Nov-12 14:30N 25°44' W 080°10'0 0.0
2017-Nov-12 14:00N 25°44' W 080°10'0 0.0
2017-Nov-12 13:30N 25°44' W 080°10'0 0.0
2017-Nov-12 13:00N 25°44' W 080°10'0 0.0
2017-Nov-12 12:30N 25°44' W 080°10'0 0.0
2017-Nov-12 12:00N 25°44' W 080°10'0 0.0
2017-Nov-12 11:30N 25°44' W 080°10'0 0.0
2017-Nov-12 11:00N 25°44' W 080°10'0 0.0
2017-Nov-12 10:30N 25°44' W 080°10'0 0.0
2017-Nov-12 10:00N 25°44' W 080°10'0 0.0
2017-Nov-12 09:30N 25°44' W 080°10'0 0.0
2017-Nov-12 09:00N 25°44' W 080°10'0 0.0
2017-Nov-12 08:30N 25°44' W 080°10'0 0.0
2017-Nov-12 08:00N 25°44' W 080°10'0 0.0
2017-Nov-12 07:30N 25°44' W 080°10'0 0.0
2017-Nov-12 07:00N 25°44' W 080°10'0 0.0
2017-Nov-12 06:30N 25°44' W 080°10'0 0.0
2017-Nov-12 06:00N 25°44' W 080°10'0 0.0
2017-Nov-12 05:30N 25°44' W 080°10'0 0.0
2017-Nov-12 05:00N 25°44' W 080°10'0 0.0
2017-Nov-12 04:31N 25°44' W 080°10'0 0.0
2017-Nov-12 04:01N 25°44' W 080°10'0 0.0
2017-Nov-12 03:31N 25°44' W 080°10'0 0.0
2017-Nov-12 03:01N 25°44' W 080°10'0 0.0
2017-Nov-12 02:30N 25°44' W 080°10'0 0.0
2017-Nov-12 02:00N 25°44' W 080°10'0 0.0
2017-Nov-12 01:30N 25°44' W 080°10'0 0.0
2017-Nov-12 01:00N 25°44' W 080°10'0 0.0
2017-Nov-12 00:30N 25°44' W 080°10'0 0.0
2017-Nov-12 00:00N 25°44' W 080°10'0 0.0
2017-Nov-11 23:30N 25°44' W 080°10'0 0.0
2017-Nov-11 23:00N 25°44' W 080°10'0 0.0
2017-Nov-11 22:30N 25°44' W 080°10'0 0.0
2017-Nov-11 22:00N 25°44' W 080°10'0 0.0
2017-Nov-11 21:30N 25°44' W 080°10'0 0.0
2017-Nov-11 21:00N 25°44' W 080°10'0 0.0
2017-Nov-11 20:30N 25°44' W 080°10'0 0.0
2017-Nov-11 19:59N 25°44' W 080°10'0 0.0
2017-Nov-11 19:30N 25°44' W 080°10'0 0.0
2017-Nov-11 19:00N 25°44' W 080°10'0 0.0
2017-Nov-11 18:30N 25°44' W 080°10'0 0.0
2017-Nov-11 18:00N 25°44' W 080°10'0 0.0
2017-Nov-11 17:30N 25°44' W 080°10'0 0.0
2017-Nov-11 17:00N 25°44' W 080°10'0 0.0
2017-Nov-11 16:30N 25°44' W 080°10'0 0.0
2017-Nov-11 16:00N 25°44' W 080°10'0 0.0
2017-Nov-11 15:30N 25°44' W 080°10'0 0.0
2017-Nov-11 15:00N 25°44' W 080°10'0 0.0
2017-Nov-11 14:30N 25°44' W 080°10'0 0.0
2017-Nov-11 14:00N 25°44' W 080°10'0 0.0
2017-Nov-11 13:30N 25°44' W 080°10'0 0.0
2017-Nov-11 13:00N 25°44' W 080°10'0 0.0
2017-Nov-11 12:30N 25°44' W 080°10'0 0.0
2017-Nov-11 12:00N 25°44' W 080°10'0 0.0
2017-Nov-11 11:30N 25°44' W 080°10'0 0.0
2017-Nov-11 11:00N 25°44' W 080°10'0 0.0
2017-Nov-11 10:30N 25°44' W 080°10'0 0.0
2017-Nov-11 10:00N 25°44' W 080°10'0 0.0
2017-Nov-11 09:30N 25°44' W 080°10'0 0.0
2017-Nov-11 09:00N 25°44' W 080°10'0 0.0
2017-Nov-11 08:30N 25°44' W 080°10'0 0.0
2017-Nov-11 08:00N 25°44' W 080°10'0 0.0
2017-Nov-11 07:30N 25°44' W 080°10'0 0.0
2017-Nov-11 07:00N 25°44' W 080°10'0 0.0
2017-Nov-11 06:30N 25°44' W 080°10'0 0.0
2017-Nov-11 06:00N 25°44' W 080°10'0 0.0
2017-Nov-11 05:30N 25°44' W 080°10'0 0.0
2017-Nov-11 05:00N 25°44' W 080°10'0 0.0
2017-Nov-11 04:30N 25°44' W 080°10'0 0.0
2017-Nov-11 04:00N 25°44' W 080°10'0 0.0
2017-Nov-11 03:30N 25°44' W 080°10'0 0.0
2017-Nov-11 03:00N 25°44' W 080°10'0 0.0
2017-Nov-11 02:31N 25°44' W 080°10'0 0.0
2017-Nov-11 02:00N 25°44' W 080°10'0 0.0
2017-Nov-11 01:30N 25°44' W 080°10'0 0.0
2017-Nov-11 01:00N 25°44' W 080°10'0 0.0
2017-Nov-11 00:31N 25°44' W 080°10'0 0.0
2017-Nov-11 00:00N 25°44' W 080°10'0 0.0
2017-Nov-10 23:31N 25°44' W 080°10'0 0.0
2017-Nov-10 23:01N 25°44' W 080°10'0 0.0
2017-Nov-10 22:31N 25°44' W 080°10'0 0.0
2017-Nov-10 22:00N 25°44' W 080°10'0 0.0
2017-Nov-10 21:30N 25°44' W 080°10'0 0.0
2017-Nov-10 21:01N 25°44' W 080°10'0 0.0
2017-Nov-10 20:30N 25°44' W 080°10'0 0.0
2017-Nov-10 20:01N 25°44' W 080°10'0 0.0
2017-Nov-10 19:30N 25°44' W 080°10'0 0.0
2017-Nov-10 19:00N 25°44' W 080°10'0 0.0
2017-Nov-10 18:30N 25°44' W 080°10'0 0.0
2017-Nov-10 18:00N 25°44' W 080°10'0 0.0
2017-Nov-10 17:31N 25°44' W 080°10'1 2.3
2017-Nov-10 17:01N 25°44' W 080°11'3 5.5
2017-Nov-10 16:30N 25°46' W 080°09'4 8.9
2017-Nov-10 16:01N 25°46' W 080°04'4 8.7
2017-Nov-10 15:31N 25°46' W 079°59'4 8.1
2017-Nov-10 15:01N 25°47' W 079°55'4 7.7
2017-Nov-10 14:31N 25°47' W 079°51'4 7.1
2017-Nov-10 14:01N 25°47' W 079°47'4 7.5
2017-Nov-10 13:31N 25°48' W 079°43'4 7.8
2017-Nov-10 13:01N 25°48' W 079°38'4 7.8
2017-Nov-10 12:31N 25°48' W 079°34'4 8.0
2017-Nov-10 12:01N 25°48' W 079°30'4 8.0
2017-Nov-10 11:31N 25°48' W 079°25'4 8.1
2017-Nov-10 11:01N 25°48' W 079°21'4 8.0
2017-Nov-10 10:31N 25°48' W 079°16'4 8.4
2017-Nov-10 10:01N 25°49' W 079°12'4 8.6
2017-Nov-10 09:31N 25°49' W 079°07'4 8.4
2017-Nov-10 09:01N 25°48' W 079°02'4 8.4
2017-Nov-10 08:31N 25°48' W 078°58'4 8.3
2017-Nov-10 08:01N 25°48' W 078°53'4 8.4
2017-Nov-10 07:31N 25°48' W 078°48'4 8.5
2017-Nov-10 07:01N 25°48' W 078°44'4 8.6
2017-Nov-10 06:31N 25°48' W 078°39'4 8.7
2017-Nov-10 06:01N 25°48' W 078°34'4 8.9
2017-Nov-10 05:31N 25°48' W 078°29'4 9.0
2017-Nov-10 05:01N 25°48' W 078°24'4 8.9
2017-Nov-10 04:31N 25°49' W 078°19'4 8.7
2017-Nov-10 04:01N 25°49' W 078°14'4 8.5
2017-Nov-10 03:31N 25°50' W 078°10'4 8.2
2017-Nov-10 03:01N 25°51' W 078°05'4 7.9
2017-Nov-10 02:31N 25°51' W 078°01'4 8.1
2017-Nov-10 02:01N 25°51' W 077°56'4 8.2
2017-Nov-10 01:31N 25°51' W 077°52'4 8.7
2017-Nov-10 01:01N 25°50' W 077°47'  

Dump ship's entire track history